Time;durP1;ratioP1;P1;durP2;ratioP2;P2;SDS_P1;SDS_P2;PMS_P1;PMS_P2;Temp;Humidity;BMP_temperature;BMP_pressure;BME280_temperature;BME280_humidity;BME280_pressure;Samples;Min_cycle;Max_cycle;Signal;HPM_P1;HPM_P2
2021/08/23 00:03:32;;;;;;;7.38;5.55;;;;;;;19.71;100.00;94996.44;10329758;28;20814;-72
2021/08/23 00:08:33;;;;;;;7.88;5.40;;;;;;;19.71;100.00;94999.16;10362502;28;20038;-72
2021/08/23 00:13:33;;;;;;;12.67;6.07;;;;;;;19.70;100.00;94999.50;10370240;28;20029;-72
2021/08/23 00:18:33;;;;;;;8.67;5.87;;;;;;;19.59;100.00;94994.41;10369187;28;20791;-72
2021/08/23 00:23:37;;;;;;;6.43;5.30;;;;;;;19.51;100.00;94997.13;10368611;28;20276;-72
2021/08/23 00:28:37;;;;;;;11.60;5.72;;;;;;;19.49;100.00;94997.44;10368546;28;20025;-72
2021/08/23 00:33:37;;;;;;;6.43;5.40;;;;;;;19.49;100.00;95000.19;10368802;28;20798;-72
2021/08/23 00:38:38;;;;;;;8.37;5.63;;;;;;;19.39;100.00;95001.31;10367527;28;20022;-72
2021/08/23 00:43:38;;;;;;;8.40;6.20;;;;;;;19.42;100.00;95014.31;10368280;28;20271;-72
2021/08/23 00:48:39;;;;;;;10.07;5.70;;;;;;;19.38;100.00;95007.09;10368195;28;20040;-72
2021/08/23 00:53:39;;;;;;;7.30;5.63;;;;;;;19.41;100.00;94998.25;10350105;28;20370;-72
2021/08/23 00:58:39;;;;;;;9.13;6.20;;;;;;;19.32;100.00;95000.22;10367809;28;20284;-72
2021/08/23 01:03:53;;;;;;;9.00;6.10;;;;;;;19.16;100.00;94999.88;10367671;28;20621;-72
2021/08/23 01:08:59;;;;;;;13.00;6.10;;;;;;;19.12;100.00;94999.75;10367291;28;20100;-72
2021/08/23 01:14:01;;;;;;;9.05;5.22;;;;;;;19.12;100.00;94992.38;10367063;28;20443;-72
2021/08/23 01:19:02;;;;;;;10.15;5.53;;;;;;;19.17;100.00;94993.31;10366839;28;20029;-72
2021/08/23 01:24:06;;;;;;;11.40;6.22;;;;;;;19.00;100.00;94999.59;10366573;28;20803;-72
2021/08/23 01:29:31;;;;;;;8.27;5.78;;;;;;;18.99;100.00;94992.53;10366261;28;20034;-72
2021/08/23 01:34:32;;;;;;;10.10;5.70;;;;;;;18.97;100.00;94992.06;10366876;28;20032;-72
2021/08/23 01:39:33;;;;;;;9.20;6.00;;;;;;;18.80;100.00;94990.91;10366620;28;20033;-72
2021/08/23 01:44:33;;;;;;;7.60;5.93;;;;;;;18.85;100.00;94987.19;10366648;28;20444;-72
2021/08/23 01:49:35;;;;;;;18.85;8.88;;;;;;;18.82;100.00;94975.03;10321951;28;20031;-72
2021/08/23 01:54:35;;;;;;;10.13;6.28;;;;;;;18.79;100.00;94972.94;10292100;28;20035;-73
2021/08/23 01:59:36;;;;;;;10.77;5.85;;;;;;;18.69;100.00;94974.06;10293628;28;20019;-72
2021/08/23 02:04:36;;;;;;;8.77;5.57;;;;;;;18.51;100.00;94978.69;10292647;28;20106;-72
2021/08/23 02:09:36;;;;;;;8.00;5.63;;;;;;;18.52;100.00;94980.28;10293545;28;20038;-72
2021/08/23 02:14:37;;;;;;;8.37;6.00;;;;;;;18.38;100.00;94976.91;10293463;28;20026;-72
2021/08/23 02:19:37;;;;;;;8.07;6.00;;;;;;;18.30;100.00;94974.97;10293439;28;20269;-72
2021/08/23 02:24:37;;;;;;;12.50;6.50;;;;;;;18.31;100.00;94963.75;10293101;28;20022;-72
2021/08/23 02:29:38;;;;;;;9.47;6.83;;;;;;;18.22;100.00;94962.94;10293098;28;20038;-72
2021/08/23 02:34:38;;;;;;;8.13;6.13;;;;;;;18.06;100.00;94959.84;10292835;28;20033;-72
2021/08/23 02:39:39;;;;;;;9.43;6.83;;;;;;;18.12;100.00;94960.50;10292611;28;20280;-72
2021/08/23 02:44:39;;;;;;;10.37;6.73;;;;;;;18.04;100.00;94953.91;10292330;28;20402;-72
2021/08/23 02:49:39;;;;;;;9.27;6.17;;;;;;;18.00;100.00;94966.53;10292363;28;20027;-72
2021/08/23 02:54:40;;;;;;;10.90;6.90;;;;;;;17.99;100.00;94956.78;10291969;28;20387;-72
2021/08/23 02:59:40;;;;;;;18.13;7.07;;;;;;;17.96;100.00;94957.41;10290675;28;20391;-72
2021/08/23 03:04:40;;;;;;;8.70;6.90;;;;;;;17.82;100.00;94966.44;10290459;28;20289;-72
2021/08/23 03:09:41;;;;;;;9.80;6.32;;;;;;;17.78;100.00;94962.75;10291340;28;20039;-72
2021/08/23 03:14:42;;;;;;;11.23;6.70;;;;;;;17.77;100.00;94967.38;10291356;28;20026;-72
2021/08/23 03:19:42;;;;;;;11.50;6.88;;;;;;;17.76;100.00;94965.78;10291133;28;20026;-72
2021/08/23 03:24:43;;;;;;;10.50;6.47;;;;;;;17.73;100.00;94968.31;10291253;28;20482;-72
2021/08/23 03:29:45;;;;;;;11.65;5.78;;;;;;;17.67;100.00;94978.53;10290425;28;20286;-72
2021/08/23 03:34:46;;;;;;;13.10;6.75;;;;;;;17.62;100.00;94973.22;10290584;28;20514;-72
2021/08/23 03:39:46;;;;;;;8.63;6.82;;;;;;;17.49;100.00;94974.13;10288646;28;20085;-72
2021/08/23 03:44:47;;;;;;;9.33;7.27;;;;;;;17.39;100.00;94978.69;10287824;28;20026;-72
2021/08/23 03:49:47;;;;;;;10.13;6.90;;;;;;;17.41;100.00;94976.47;10289731;28;20286;-72
2021/08/23 03:54:48;;;;;;;15.57;10.73;;;;;;;17.45;100.00;94981.28;10289739;28;20354;-72
2021/08/23 03:59:49;;;;;;;13.57;8.03;;;;;;;17.49;100.00;94972.19;10289761;28;20278;-72
2021/08/23 04:04:49;;;;;;;11.77;8.50;;;;;;;17.38;100.00;94977.09;10289126;28;20038;-72
2021/08/23 04:09:50;;;;;;;12.03;8.80;;;;;;;17.35;100.00;94976.91;10289375;28;20426;-72
2021/08/23 04:14:50;;;;;;;13.80;9.50;;;;;;;17.48;100.00;94980.66;10288236;28;20026;-72
2021/08/23 04:19:51;;;;;;;10.10;7.55;;;;;;;17.41;100.00;94981.91;10288421;28;20037;-72
2021/08/23 04:24:51;;;;;;;19.45;8.57;;;;;;;17.54;100.00;94980.22;10288511;28;20023;-73
2021/08/23 04:29:51;;;;;;;11.40;7.73;;;;;;;17.63;100.00;94979.47;10287978;28;20033;-76
2021/08/23 04:34:52;;;;;;;11.20;7.17;;;;;;;17.79;100.00;94977.13;10288272;28;20757;-72
2021/08/23 04:39:52;;;;;;;10.13;7.47;;;;;;;17.85;100.00;94984.84;10287650;28;20101;-73
2021/08/23 04:44:52;;;;;;;14.77;7.83;;;;;;;18.02;100.00;94983.34;10287612;28;20027;-72
2021/08/23 04:49:53;;;;;;;7.90;5.20;;;;;;;18.08;100.00;94988.34;10287229;28;20286;-72
2021/08/23 04:54:53;;;;;;;10.90;6.03;;;;;;;18.32;100.00;94978.16;10287343;28;20022;-72
2021/08/23 04:59:54;;;;;;;8.83;5.67;;;;;;;18.52;100.00;94983.00;10286936;28;20027;-72
2021/08/23 05:04:54;;;;;;;15.80;6.90;;;;;;;18.91;100.00;94975.06;10286886;28;20408;-72
2021/08/23 05:09:54;;;;;;;9.80;6.43;;;;;;;19.28;100.00;94970.06;10286422;28;20518;-72
2021/08/23 05:14:54;;;;;;;10.50;5.93;;;;;;;19.67;100.00;94976.41;10286390;28;20037;-73
2021/08/23 05:19:55;;;;;;;12.73;5.67;;;;;;;20.12;100.00;94969.69;10285544;28;20042;-72
2021/08/23 05:24:55;;;;;;;7.77;4.90;;;;;;;20.39;100.00;94970.38;10285486;28;20031;-72
2021/08/23 05:30:01;;;;;;;9.63;4.93;;;;;;;20.56;100.00;94972.19;10286413;28;20336;-72
2021/08/23 05:35:01;;;;;;;14.85;5.60;;;;;;;21.07;97.58;94972.16;10285864;28;20369;-71
2021/08/23 05:40:05;;;;;;;6.67;4.77;;;;;;;21.28;96.12;94972.94;10285992;28;20041;-71
2021/08/23 05:45:06;;;;;;;8.50;4.72;;;;;;;21.57;93.42;94970.44;10285681;28;20030;-72
2021/08/23 05:50:07;;;;;;;8.27;5.07;;;;;;;22.08;87.21;94987.41;10285312;28;20082;-72
2021/08/23 05:55:08;;;;;;;8.65;4.82;;;;;;;22.66;83.98;94970.88;10285622;28;20572;-72
2021/08/23 06:00:10;;;;;;;8.75;5.22;;;;;;;23.97;75.27;94972.59;10285633;28;20073;-72
2021/08/23 06:05:13;;;;;;;14.85;5.75;;;;;;;25.45;66.19;94970.44;10283487;28;20467;-72
2021/08/23 06:10:13;;;;;;;12.85;5.47;;;;;;;26.63;57.75;94968.97;10285235;28;20031;-72
2021/08/23 06:15:14;;;;;;;11.83;5.23;;;;;;;27.47;51.07;94963.41;10285230;28;20023;-72
2021/08/23 06:20:14;;;;;;;13.10;4.57;;;;;;;28.28;47.10;94967.41;10285145;28;20470;-72
2021/08/23 06:25:15;;;;;;;8.80;4.57;;;;;;;28.45;45.50;94963.22;10285088;28;20117;-72
2021/08/23 06:30:15;;;;;;;16.57;4.93;;;;;;;29.23;43.56;94958.53;10284810;28;20277;-72
2021/08/23 06:35:16;;;;;;;7.97;4.50;;;;;;;29.48;42.82;94958.69;10285997;28;20285;-72
2021/08/23 06:40:17;;;;;;;8.43;4.63;;;;;;;30.44;40.19;94966.81;10292518;28;20110;-72
2021/08/23 06:45:18;;;;;;;22.17;4.82;;;;;;;31.06;37.82;94965.56;10291610;28;20023;-72
2021/08/23 06:50:18;;;;;;;6.40;4.07;;;;;;;31.06;37.49;94971.13;10291411;28;20030;-72
2021/08/23 06:55:18;;;;;;;8.38;4.00;;;;;;;31.18;37.37;94965.13;10290780;28;20014;-72
2021/08/23 07:00:19;;;;;;;9.30;4.17;;;;;;;31.85;35.65;94956.91;10291643;28;20031;-72
2021/08/23 07:05:19;;;;;;;6.00;4.00;;;;;;;32.34;35.00;94953.44;10291370;28;20314;-72
2021/08/23 07:10:20;;;;;;;7.13;3.78;;;;;;;33.16;33.77;94945.53;10291048;28;20041;-72
2021/08/23 07:15:20;;;;;;;8.43;4.20;;;;;;;32.65;33.82;94945.22;10291028;28;20027;-72
2021/08/23 07:20:20;;;;;;;7.73;3.80;;;;;;;33.58;32.49;94937.88;10290852;28;20081;-72
2021/08/23 07:25:21;;;;;;;11.93;3.83;;;;;;;34.96;30.97;94926.22;10289266;28;20094;-72
2021/08/23 07:30:21;;;;;;;11.13;3.73;;;;;;;35.55;29.96;94924.66;10289130;28;20118;-70
2021/08/23 07:35:21;;;;;;;6.77;3.47;;;;;;;36.05;29.51;94925.56;10290424;28;20093;-72
2021/08/23 07:40:22;;;;;;;7.13;3.13;;;;;;;34.97;30.47;94924.19;10288960;28;20463;-72
2021/08/23 07:45:23;;;;;;;8.03;3.70;;;;;;;35.42;29.48;94930.13;10289536;28;20081;-72
2021/08/23 07:50:23;;;;;;;6.32;3.20;;;;;;;35.52;29.02;94924.75;10289770;28;20417;-70
2021/08/23 07:55:24;;;;;;;10.57;3.50;;;;;;;35.50;29.50;94922.38;10289372;28;20033;-70
2021/08/23 08:00:25;;;;;;;6.88;3.22;;;;;;;36.37;28.76;94912.09;10289417;28;20023;-70
2021/08/23 08:05:25;;;;;;;8.73;3.60;;;;;;;36.59;27.92;94912.34;10288898;28;20089;-71
2021/08/23 08:10:25;;;;;;;4.33;2.93;;;;;;;37.39;27.43;94900.59;10288899;28;20042;-71
2021/08/23 08:15:26;;;;;;;7.80;3.00;;;;;;;37.01;27.55;94906.03;10288458;28;20027;-71
2021/08/23 08:20:26;;;;;;;5.00;3.20;;;;;;;37.04;27.86;94905.16;10289622;28;20037;-71
2021/08/23 08:25:27;;;;;;;5.18;2.88;;;;;;;37.88;26.82;94895.97;10289621;28;20031;-71
2021/08/23 08:30:27;;;;;;;8.77;2.87;;;;;;;37.41;26.87;94894.53;10289549;28;20088;-71
2021/08/23 08:35:28;;;;;;;4.97;3.03;;;;;;;38.07;26.29;94888.53;10289617;28;20706;-71
2021/08/23 08:40:28;;;;;;;9.00;3.40;;;;;;;38.94;25.51;94887.25;10289532;28;20300;-70
2021/08/23 08:45:30;;;;;;;6.77;3.00;;;;;;;39.06;25.28;94882.03;10289042;28;20100;-70
2021/08/23 08:50:31;;;;;;;7.25;2.70;;;;;;;40.21;24.21;94891.78;10288621;28;20062;-71
2021/08/23 08:55:36;;;;;;;5.60;2.63;;;;;;;39.89;24.20;94888.22;10288467;28;20530;-71
2021/08/23 09:00:40;;;;;;;7.32;2.75;;;;;;;39.26;25.23;94876.13;10288111;28;20290;-71
2021/08/23 09:05:51;;;;;;;4.50;2.88;;;;;;;38.66;25.68;94874.22;10288080;28;20498;-71
2021/08/23 09:10:51;;;;;;;3.92;2.40;;;;;;;40.45;23.74;94868.69;10301487;28;20062;-71
2021/08/23 09:15:57;;;;;;;4.33;2.60;;;;;;;41.75;21.94;94860.19;10288077;28;20581;-71
2021/08/23 09:21:00;;;;;;;6.35;2.90;;;;;;;40.78;23.16;94854.06;10287559;28;20061;-71
2021/08/23 09:26:12;;;;;;;8.90;2.45;;;;;;;39.87;23.58;94851.31;10287494;28;20038;-71
2021/08/23 09:31:12;;;;;;;5.63;2.65;;;;;;;40.16;23.31;94838.91;10287832;28;20110;-71
2021/08/23 09:36:19;;;;;;;5.07;2.57;;;;;;;41.20;22.04;94828.03;10287181;28;20022;-71
2021/08/23 09:41:23;;;;;;;3.38;2.42;;;;;;;41.03;21.45;94823.97;10287304;28;20494;-71
2021/08/23 09:46:23;;;;;;;4.60;2.80;;;;;;;39.19;23.12;94825.81;10286957;28;20030;-71
2021/08/23 09:51:45;;;;;;;6.60;2.80;;;;;;;40.61;22.48;94817.72;10286853;28;20027;-71
2021/08/23 09:56:51;;;;;;;6.85;2.90;;;;;;;42.28;20.69;94797.53;10287199;28;20026;-71
2021/08/23 10:01:54;;;;;;;3.10;2.15;;;;;;;43.62;18.71;94793.38;10287069;28;20074;-71
2021/08/23 10:06:55;;;;;;;2.60;2.38;;;;;;;41.36;20.19;94784.63;10286575;28;20043;-71
2021/08/23 10:11:58;;;;;;;3.15;2.38;;;;;;;40.16;21.14;94785.41;10291170;28;20030;-71
2021/08/23 10:16:59;;;;;;;6.60;2.85;;;;;;;39.02;21.71;94794.25;10294493;28;20118;-71
2021/08/23 10:22:00;;;;;;;6.68;2.30;;;;;;;37.53;22.49;94792.81;10294522;28;20042;-71
2021/08/23 10:27:00;;;;;;;4.95;2.90;;;;;;;35.70;24.13;94790.94;10293811;28;20030;-71
2021/08/23 10:32:07;;;;;;;3.50;2.60;;;;;;;37.42;23.35;94776.34;10294293;28;20058;-71
2021/08/23 10:37:23;;;;;;;4.43;2.60;;;;;;;38.44;20.89;94777.44;10293682;28;20038;-71
2021/08/23 10:42:35;;;;;;;5.93;2.60;;;;;;;39.95;19.25;94768.16;10293492;28;20061;-71
2021/08/23 10:47:36;;;;;;;3.97;2.40;;;;;;;41.21;18.74;94761.94;10293275;28;20034;-71
2021/08/23 10:52:36;;;;;;;3.57;2.00;;;;;;;40.10;19.47;94759.91;10293741;28;20519;-71
2021/08/23 10:57:37;;;;;;;2.38;2.10;;;;;;;40.45;18.96;94753.22;10293036;28;20756;-72
2021/08/23 11:02:38;;;;;;;6.20;2.77;;;;;;;41.27;18.42;94740.28;10292849;28;20042;-71
2021/08/23 11:07:40;;;;;;;3.75;2.10;;;;;;;41.36;18.69;94738.72;10291316;28;20047;-72
2021/08/23 11:12:48;;;;;;;2.30;2.08;;;;;;;42.50;17.50;94731.47;10292410;28;20034;-72
2021/08/23 11:17:51;;;;;;;2.75;2.33;;;;;;;41.41;17.88;94721.16;10292464;28;20054;-71
2021/08/23 11:22:57;;;;;;;2.63;2.42;;;;;;;38.15;20.51;94721.47;10291285;28;20042;-71
2021/08/23 11:28:00;;;;;;;6.47;2.75;;;;;;;35.73;23.02;94711.00;10292039;28;20161;-71
2021/08/23 11:33:02;;;;;;;5.82;2.75;;;;;;;35.01;23.78;94712.66;10291909;28;20108;-71
2021/08/23 11:38:09;;;;;;;3.85;3.05;;;;;;;33.28;24.93;94713.03;10291415;28;20481;-71
2021/08/23 11:43:09;;;;;;;5.03;3.17;;;;;;;32.52;26.07;94709.25;10291655;28;20076;-70
2021/08/23 11:48:10;;;;;;;4.23;3.40;;;;;;;32.20;25.96;94704.84;10290573;28;20461;-70
2021/08/23 11:53:12;;;;;;;4.10;3.30;;;;;;;31.66;26.53;94704.59;10291153;28;20808;-70
2021/08/23 11:58:15;;;;;;;5.13;2.65;;;;;;;30.96;27.33;94708.25;10290754;28;20526;-71
2021/08/23 12:03:18;;;;;;;5.47;3.20;;;;;;;30.98;27.59;94698.31;10289306;28;20035;-71
2021/08/23 12:08:31;;;;;;;4.00;3.00;;;;;;;31.14;27.26;94683.94;10289938;28;20047;-71
2021/08/23 12:13:36;;;;;;;4.10;3.08;;;;;;;31.06;27.37;94692.75;10294738;28;20420;-71
2021/08/23 12:18:43;;;;;;;5.85;3.30;;;;;;;30.85;26.63;94681.38;10289981;28;20077;-71
2021/08/23 12:23:49;;;;;;;3.15;2.72;;;;;;;30.28;27.08;94679.66;10289846;28;20034;-71
2021/08/23 12:28:50;;;;;;;5.82;3.20;;;;;;;30.20;26.76;94669.78;10288266;28;20031;-71
2021/08/23 12:33:51;;;;;;;5.65;2.97;;;;;;;30.06;27.17;94681.69;10288640;28;20415;-71
2021/08/23 12:38:51;;;;;;;3.97;3.35;;;;;;;30.05;27.45;94663.47;10289319;28;20026;-71
2021/08/23 12:43:54;;;;;;;6.50;3.20;;;;;;;30.17;26.95;94663.06;10289159;28;20406;-71
2021/08/23 12:48:54;;;;;;;7.20;3.22;;;;;;;30.14;26.73;94661.09;10288785;28;20042;-71
2021/08/23 12:53:55;;;;;;;3.00;2.70;;;;;;;30.03;26.79;94663.09;10288692;28;20035;-71
2021/08/23 12:58:56;;;;;;;8.13;3.25;;;;;;;30.11;26.95;94661.88;10288354;28;20038;-71
2021/08/23 13:03:56;;;;;;;4.05;3.17;;;;;;;29.96;26.62;94660.34;10288340;28;20026;-71
2021/08/23 13:08:58;;;;;;;5.10;3.00;;;;;;;29.87;26.75;94648.91;10287608;28;20047;-71
2021/08/23 13:13:58;;;;;;;6.10;3.95;;;;;;;29.90;26.54;94650.88;10270374;28;20034;-71
2021/08/23 13:18:59;;;;;;;5.70;3.03;;;;;;;29.97;26.88;94642.53;10288196;28;20109;-71
2021/08/23 13:23:59;;;;;;;5.07;2.83;;;;;;;29.76;26.73;94644.13;10286783;28;20414;-71
2021/08/23 13:29:00;;;;;;;4.23;2.80;;;;;;;29.77;26.46;94634.66;10287387;28;20125;-71
2021/08/23 13:34:00;;;;;;;4.13;2.40;;;;;;;29.49;26.62;94638.28;10287571;28;20038;-71
2021/08/23 13:39:01;;;;;;;4.00;3.25;;;;;;;29.46;26.73;94628.78;10288634;28;20274;-71
2021/08/23 13:44:01;;;;;;;5.67;2.90;;;;;;;29.54;27.26;94628.75;10290988;28;20122;-71
2021/08/23 13:49:02;;;;;;;4.77;3.07;;;;;;;29.42;27.75;94629.97;10291473;28;20089;-71
2021/08/23 13:54:02;;;;;;;3.55;2.97;;;;;;;29.31;27.23;94621.69;10291716;28;20042;-72
2021/08/23 13:59:02;;;;;;;7.47;3.20;;;;;;;29.33;26.99;94627.59;10291593;28;20026;-71
2021/08/23 14:04:03;;;;;;;2.93;2.57;;;;;;;29.14;26.77;94612.19;10273881;28;20054;-71
2021/08/23 14:09:03;;;;;;;5.05;2.97;;;;;;;29.06;27.25;94613.38;10290652;28;20659;-71
2021/08/23 14:14:04;;;;;;;5.63;3.07;;;;;;;29.10;27.95;94612.19;10291125;28;20034;-71
2021/08/23 14:19:04;;;;;;;7.97;3.15;;;;;;;29.08;28.02;94609.03;10291232;28;20764;-71
2021/08/23 14:24:05;;;;;;;4.90;3.50;;;;;;;29.08;27.97;94608.22;10290643;28;20026;-71
2021/08/23 14:29:05;;;;;;;7.63;3.00;;;;;;;29.02;27.65;94605.06;10290830;28;20034;-71
2021/08/23 14:34:07;;;;;;;8.47;3.27;;;;;;;28.92;27.70;94608.63;10290137;28;20027;-71
2021/08/23 14:39:07;;;;;;;6.25;3.30;;;;;;;28.80;28.22;94612.56;10288210;28;20019;-71
2021/08/23 14:44:07;;;;;;;3.10;2.63;;;;;;;28.63;28.27;94609.41;10325974;28;20053;-71
2021/08/23 14:49:08;;;;;;;8.43;3.73;;;;;;;28.71;28.62;94614.94;10325880;28;20285;-71
2021/08/23 14:54:08;;;;;;;5.07;3.00;;;;;;;28.55;28.79;94623.56;10308745;28;20113;-71
2021/08/23 14:59:09;;;;;;;5.55;3.05;;;;;;;28.38;29.54;94603.78;10331676;28;20026;-71
2021/08/23 15:04:09;;;;;;;5.07;3.63;;;;;;;28.38;29.10;94608.53;10333010;28;20049;-71
2021/08/23 15:09:09;;;;;;;4.63;3.10;;;;;;;28.33;29.16;94606.13;10315118;28;20514;-72
2021/08/23 15:14:11;;;;;;;3.80;3.10;;;;;;;28.22;29.29;94606.13;10333096;28;20069;-72
2021/08/23 15:19:11;;;;;;;4.73;3.57;;;;;;;28.14;29.76;94600.56;10332589;28;20054;-71
2021/08/23 15:24:12;;;;;;;4.07;3.40;;;;;;;28.18;29.49;94608.09;10332469;28;20117;-71
2021/08/23 15:29:14;;;;;;;4.32;3.30;;;;;;;28.13;29.55;94604.53;10332104;28;20042;-71
2021/08/23 15:34:14;;;;;;;10.05;3.75;;;;;;;28.07;29.97;94599.75;10331856;28;20092;-71
2021/08/23 15:39:14;;;;;;;5.03;3.20;;;;;;;27.97;30.29;94609.56;10331586;28;20406;-71
2021/08/23 15:44:15;;;;;;;5.53;3.33;;;;;;;27.80;30.44;94602.78;10331722;28;20289;-71
2021/08/23 15:49:15;;;;;;;5.30;2.90;;;;;;;27.76;30.45;94600.00;10331139;28;20034;-71
2021/08/23 15:54:16;;;;;;;6.17;3.50;;;;;;;27.71;30.67;94607.84;10331074;28;20365;-72
2021/08/23 15:59:16;;;;;;;10.90;3.33;;;;;;;27.69;30.54;94607.47;10330932;28;20033;-71
2021/08/23 16:04:19;;;;;;;7.13;3.67;;;;;;;27.65;30.73;94604.69;10329891;28;20776;-72
2021/08/23 16:09:20;;;;;;;5.25;3.08;;;;;;;27.49;30.73;94612.47;10330474;28;20377;-72
2021/08/23 16:14:20;;;;;;;7.43;3.57;;;;;;;27.41;31.17;94606.91;10312861;28;20097;-72
2021/08/23 16:19:23;;;;;;;7.17;3.70;;;;;;;27.26;30.96;94603.22;10329830;28;20266;-72
2021/08/23 16:24:26;;;;;;;6.40;3.42;;;;;;;27.23;31.23;94609.53;10330061;28;20444;-72
2021/08/23 16:29:26;;;;;;;6.05;3.42;;;;;;;27.12;31.31;94605.91;10329754;28;20042;-72
2021/08/23 16:34:28;;;;;;;7.45;4.45;;;;;;;27.10;31.27;94611.81;10329881;28;20085;-72
2021/08/23 16:39:29;;;;;;;8.15;3.72;;;;;;;26.97;31.63;94615.25;10329170;28;20026;-72
2021/08/23 16:44:30;;;;;;;5.00;3.80;;;;;;;26.83;31.91;94615.91;10329337;28;20034;-72
2021/08/23 16:49:30;;;;;;;4.00;3.50;;;;;;;26.72;32.08;94622.13;10328786;28;20037;-72
2021/08/23 16:54:31;;;;;;;5.17;3.40;;;;;;;26.59;32.26;94623.56;10329116;28;20015;-72
2021/08/23 16:59:32;;;;;;;5.38;3.97;;;;;;;26.42;32.60;94624.97;10328817;28;21154;-72
2021/08/23 17:04:32;;;;;;;7.67;3.70;;;;;;;26.30;33.06;94641.75;10328523;28;20026;-72
2021/08/23 17:09:33;;;;;;;4.15;3.63;;;;;;;26.06;33.61;94636.38;10328233;28;20575;-72
2021/08/23 17:14:33;;;;;;;7.28;3.72;;;;;;;25.74;34.14;94636.72;10328248;28;20057;-72
2021/08/23 17:19:33;;;;;;;5.70;4.07;;;;;;;25.64;34.26;94631.88;10327525;28;20499;-72
2021/08/23 17:24:34;;;;;;;8.27;4.17;;;;;;;25.42;34.41;94637.09;10328151;28;20026;-72
2021/08/23 17:29:34;;;;;;;7.00;3.83;;;;;;;25.30;34.73;94642.78;10327830;28;20394;-72
2021/08/23 17:34:35;;;;;;;8.32;4.93;;;;;;;25.15;34.76;94643.72;10327631;28;20080;-72
2021/08/23 17:39:36;;;;;;;9.45;5.63;;;;;;;25.04;34.83;94654.56;10327461;28;20030;-72
2021/08/23 17:44:36;;;;;;;9.25;5.90;;;;;;;24.92;34.97;94658.28;10331349;28;20033;-72
2021/08/23 17:49:37;;;;;;;8.23;6.23;;;;;;;24.81;35.17;94665.53;10326869;28;20034;-72
2021/08/23 17:54:37;;;;;;;9.88;5.72;;;;;;;24.76;35.46;94665.88;10326207;28;20042;-72
2021/08/23 17:59:38;;;;;;;12.77;6.38;;;;;;;24.65;35.46;94674.69;10326342;28;20470;-72
2021/08/23 18:04:41;;;;;;;10.87;8.20;;;;;;;24.50;35.96;94672.81;10318919;28;20089;-72
2021/08/23 18:09:41;;;;;;;10.18;7.15;;;;;;;24.43;36.14;94680.94;10326674;28;20038;-72
2021/08/23 18:14:42;;;;;;;11.57;8.33;;;;;;;24.35;36.14;94686.28;10326337;28;20500;-71
2021/08/23 18:19:42;;;;;;;14.32;9.00;;;;;;;24.29;36.59;94682.25;10326452;28;20296;-72
2021/08/23 18:24:42;;;;;;;13.17;8.97;;;;;;;24.30;37.24;94689.31;10326327;28;20456;-72
2021/08/23 18:29:43;;;;;;;15.27;10.13;;;;;;;24.22;37.53;94691.16;10325776;28;20474;-72
2021/08/23 18:34:44;;;;;;;15.07;9.57;;;;;;;24.17;37.91;94701.63;10333499;28;20385;-72
2021/08/23 18:39:44;;;;;;;9.80;6.47;;;;;;;24.04;38.48;94701.78;10333853;28;20438;-72
2021/08/23 18:44:45;;;;;;;6.27;4.53;;;;;;;23.96;38.97;94713.75;10329124;28;20038;-72
2021/08/23 18:49:46;;;;;;;8.30;4.28;;;;;;;23.84;39.23;94713.84;10292741;28;20298;-72
2021/08/23 18:54:47;;;;;;;7.57;4.32;;;;;;;23.81;39.73;94715.34;10292722;28;20031;-72
2021/08/23 18:59:47;;;;;;;5.50;4.17;;;;;;;23.76;40.16;94731.31;10292494;28;20026;-72
2021/08/23 19:04:47;;;;;;;8.20;4.83;;;;;;;23.64;40.85;94726.72;10292003;28;20326;-72
2021/08/23 19:09:48;;;;;;;7.17;4.90;;;;;;;23.55;41.38;94724.19;10292273;28;20479;-72
2021/08/23 19:14:48;;;;;;;10.60;4.60;;;;;;;23.49;41.30;94736.59;10291869;28;20117;-72
2021/08/23 19:19:52;;;;;;;6.75;3.80;;;;;;;23.49;40.98;94739.31;10291991;28;20045;-72
2021/08/23 19:24:53;;;;;;;6.03;4.95;;;;;;;23.46;41.46;94740.03;10291737;28;20034;-72
2021/08/23 19:29:55;;;;;;;7.85;4.63;;;;;;;23.47;41.36;94745.16;10291095;28;20498;-72
2021/08/23 19:34:56;;;;;;;6.43;3.75;;;;;;;23.42;41.14;94744.66;10290303;28;20062;-72
2021/08/23 19:39:57;;;;;;;9.55;4.32;;;;;;;23.42;41.33;94744.66;10311788;28;20037;-72
2021/08/23 19:44:57;;;;;;;6.60;3.78;;;;;;;23.39;41.56;94743.41;10331030;28;20041;-72
2021/08/23 19:49:57;;;;;;;5.23;3.77;;;;;;;23.27;41.93;94747.03;10330850;28;20034;-72
2021/08/23 19:54:58;;;;;;;8.57;3.70;;;;;;;23.17;42.94;94753.06;10352137;28;20470;-72
2021/08/23 19:59:58;;;;;;;7.57;3.53;;;;;;;22.97;43.38;94758.41;10353131;28;20309;-72
2021/08/23 20:04:58;;;;;;;5.13;3.63;;;;;;;22.80;44.51;94764.19;10369576;28;20049;-72
2021/08/23 20:09:59;;;;;;;6.45;3.33;;;;;;;22.73;45.11;94764.00;10369214;28;20026;-73
2021/08/23 20:14:59;;;;;;;5.70;3.97;;;;;;;22.62;45.40;94778.22;10369410;28;20447;-72
2021/08/23 20:20:02;;;;;;;7.00;3.53;;;;;;;22.58;45.88;94780.06;10369509;28;20021;-72
2021/08/23 20:25:05;;;;;;;5.57;3.80;;;;;;;22.50;46.35;94776.31;10369011;28;20282;-72
2021/08/23 20:30:09;;;;;;;6.18;3.70;;;;;;;22.55;46.28;94786.25;10351331;28;20061;-72
2021/08/23 20:35:13;;;;;;;6.30;3.55;;;;;;;22.53;46.64;94791.25;10368681;28;20042;-72
2021/08/23 20:40:14;;;;;;;4.93;3.33;;;;;;;22.48;46.46;94791.50;10368599;28;20029;-72
2021/08/23 20:45:14;;;;;;;5.43;3.60;;;;;;;22.46;46.06;94789.13;10368460;28;20059;-72
2021/08/23 20:50:18;;;;;;;6.55;3.50;;;;;;;22.41;46.42;94791.31;10368287;28;20103;-72
2021/08/23 20:55:18;;;;;;;7.25;4.03;;;;;;;22.33;46.11;94785.63;10367707;28;20470;-72
2021/08/23 21:00:19;;;;;;;9.65;2.95;;;;;;;22.27;46.43;94786.19;10367879;28;20029;-72
2021/08/23 21:05:19;;;;;;;6.78;3.13;;;;;;;22.22;47.08;94783.72;10366965;28;20049;-72
2021/08/23 21:10:20;;;;;;;5.18;3.10;;;;;;;22.10;48.19;94781.78;10367405;28;20038;-72
2021/08/23 21:15:20;;;;;;;6.35;2.90;;;;;;;21.98;49.16;94780.66;10367935;28;20088;-72
2021/08/23 21:20:21;;;;;;;6.57;3.33;;;;;;;21.83;49.47;94782.16;10367348;28;20153;-73
2021/08/23 21:25:21;;;;;;;4.67;2.80;;;;;;;21.76;51.03;94781.16;10367505;28;20045;-72
2021/08/23 21:30:22;;;;;;;10.25;3.03;;;;;;;21.72;52.13;94775.56;10367129;28;20289;-72
2021/08/23 21:35:22;;;;;;;9.17;3.17;;;;;;;21.66;54.45;94791.41;10367049;28;20493;-73
2021/08/23 21:40:23;;;;;;;8.45;3.38;;;;;;;21.60;56.10;94784.59;10366993;28;20292;-72
2021/08/23 21:45:23;;;;;;;6.72;3.25;;;;;;;21.50;57.39;94783.09;10366979;28;20033;-72
2021/08/23 21:50:24;;;;;;;5.33;3.03;;;;;;;21.51;59.25;94784.66;10366781;28;20038;-72
2021/08/23 21:55:25;;;;;;;7.25;3.05;;;;;;;21.40;61.99;94782.72;10366822;28;20033;-73
2021/08/23 22:00:25;;;;;;;5.05;3.47;;;;;;;21.35;64.72;94783.78;10366645;28;20487;-72
2021/08/23 22:05:26;;;;;;;5.40;3.27;;;;;;;21.33;65.50;94789.56;10368834;28;20767;-73
2021/08/23 22:10:26;;;;;;;10.30;3.97;;;;;;;21.25;66.68;94782.28;10374856;28;20692;-73
2021/08/23 22:15:27;;;;;;;7.20;3.53;;;;;;;21.23;68.55;94786.50;10374182;28;20025;-72
2021/08/23 22:20:29;;;;;;;6.72;2.92;;;;;;;21.00;72.72;94801.38;10374123;28;20474;-72
2021/08/23 22:25:30;;;;;;;4.22;2.85;;;;;;;20.95;75.04;94795.31;10355930;28;20084;-72
2021/08/23 22:30:30;;;;;;;6.68;3.28;;;;;;;21.02;76.06;94790.09;10372350;28;20109;-72
2021/08/23 22:35:31;;;;;;;4.90;3.45;;;;;;;20.87;77.96;94797.00;10373137;28;20516;-73
2021/08/23 22:40:31;;;;;;;5.00;3.45;;;;;;;20.87;81.29;94791.53;10373031;28;20092;-72
2021/08/23 22:45:32;;;;;;;7.43;2.90;;;;;;;20.75;85.02;94797.78;10373577;28;20057;-72
2021/08/23 22:50:33;;;;;;;5.75;3.40;;;;;;;20.62;84.02;94793.34;10373351;28;20117;-73
2021/08/23 22:55:34;;;;;;;4.20;2.92;;;;;;;20.60;84.07;94796.44;10372806;28;20034;-72
2021/08/23 23:00:34;;;;;;;6.65;3.97;;;;;;;20.49;84.37;94797.97;10373002;28;20398;-72
2021/08/23 23:05:34;;;;;;;5.93;3.25;;;;;;;20.42;85.71;94805.91;10372550;28;20041;-72
2021/08/23 23:10:35;;;;;;;5.73;4.30;;;;;;;20.37;87.48;94812.34;10372438;28;20397;-72
2021/08/23 23:15:35;;;;;;;6.43;3.67;;;;;;;20.25;90.15;94807.66;10372448;28;20052;-73